sensor_id;sensor_type;location;lat;lon;timestamp;temperature;humidity
20291;DHT22;10304;51.074;13.754;2024-02-14T00:00:19;6.70;1.00
20291;DHT22;10304;51.074;13.754;2024-02-14T00:02:47;6.70;1.00
20291;DHT22;10304;51.074;13.754;2024-02-14T00:05:17;6.70;1.00
20291;DHT22;10304;51.074;13.754;2024-02-14T00:07:44;6.70;1.00
20291;DHT22;10304;51.074;13.754;2024-02-14T00:10:11;6.70;1.00
20291;DHT22;10304;51.074;13.754;2024-02-14T00:12:38;6.70;1.00
20291;DHT22;10304;51.074;13.754;2024-02-14T00:15:05;6.70;1.00
20291;DHT22;10304;51.074;13.754;2024-02-14T00:17:34;6.70;1.00
20291;DHT22;10304;51.074;13.754;2024-02-14T00:20:02;6.70;1.00
20291;DHT22;10304;51.074;13.754;2024-02-14T00:22:30;6.70;1.00
20291;DHT22;10304;51.074;13.754;2024-02-14T00:24:57;6.70;1.00
20291;DHT22;10304;51.074;13.754;2024-02-14T00:27:24;6.70;1.00
20291;DHT22;10304;51.074;13.754;2024-02-14T00:29:53;6.70;1.00
20291;DHT22;10304;51.074;13.754;2024-02-14T00:32:21;6.70;1.00
20291;DHT22;10304;51.074;13.754;2024-02-14T00:34:48;6.70;1.00
20291;DHT22;10304;51.074;13.754;2024-02-14T00:37:16;6.70;1.00
20291;DHT22;10304;51.074;13.754;2024-02-14T00:39:43;6.70;1.00
20291;DHT22;10304;51.074;13.754;2024-02-14T00:42:10;6.70;1.00
20291;DHT22;10304;51.074;13.754;2024-02-14T00:44:37;6.70;1.00
20291;DHT22;10304;51.074;13.754;2024-02-14T00:47:04;6.70;1.00
20291;DHT22;10304;51.074;13.754;2024-02-14T00:49:34;6.70;33.20
20291;DHT22;10304;51.074;13.754;2024-02-14T00:52:02;6.70;14.00
20291;DHT22;10304;51.074;13.754;2024-02-14T00:54:29;6.80;22.90
20291;DHT22;10304;51.074;13.754;2024-02-14T00:56:59;6.80;41.30
20291;DHT22;10304;51.074;13.754;2024-02-14T00:59:29;6.90;55.00
20291;DHT22;10304;51.074;13.754;2024-02-14T01:01:59;6.80;22.50
20291;DHT22;10304;51.074;13.754;2024-02-14T01:04:26;6.80;31.80
20291;DHT22;10304;51.074;13.754;2024-02-14T01:06:54;6.90;1.00
20291;DHT22;10304;51.074;13.754;2024-02-14T01:09:24;7.00;1.00
20291;DHT22;10304;51.074;13.754;2024-02-14T01:11:53;7.00;1.00
20291;DHT22;10304;51.074;13.754;2024-02-14T01:14:21;7.00;1.00
20291;DHT22;10304;51.074;13.754;2024-02-14T01:16:56;7.00;1.00
20291;DHT22;10304;51.074;13.754;2024-02-14T01:19:29;6.90;1.00
20291;DHT22;10304;51.074;13.754;2024-02-14T01:22:00;6.90;1.00
20291;DHT22;10304;51.074;13.754;2024-02-14T01:24:29;6.90;1.00
20291;DHT22;10304;51.074;13.754;2024-02-14T01:27:00;6.90;1.00
20291;DHT22;10304;51.074;13.754;2024-02-14T01:29:28;6.90;1.00
20291;DHT22;10304;51.074;13.754;2024-02-14T01:31:57;7.00;1.00
20291;DHT22;10304;51.074;13.754;2024-02-14T01:34:24;7.00;1.00
20291;DHT22;10304;51.074;13.754;2024-02-14T01:36:52;7.00;1.00
20291;DHT22;10304;51.074;13.754;2024-02-14T01:39:19;7.00;1.00
20291;DHT22;10304;51.074;13.754;2024-02-14T01:41:47;7.00;1.00
20291;DHT22;10304;51.074;13.754;2024-02-14T01:44:16;7.00;1.00
20291;DHT22;10304;51.074;13.754;2024-02-14T01:46:56;7.10;1.00
20291;DHT22;10304;51.074;13.754;2024-02-14T01:49:23;7.10;1.00
20291;DHT22;10304;51.074;13.754;2024-02-14T01:51:57;7.00;1.00
20291;DHT22;10304;51.074;13.754;2024-02-14T01:54:26;7.00;1.00
20291;DHT22;10304;51.074;13.754;2024-02-14T01:57:24;7.00;1.00
20291;DHT22;10304;51.074;13.754;2024-02-14T02:00:20;7.00;1.00
20291;DHT22;10304;51.074;13.754;2024-02-14T02:02:50;7.00;1.00
20291;DHT22;10304;51.074;13.754;2024-02-14T02:05:32;7.00;1.00
20291;DHT22;10304;51.074;13.754;2024-02-14T02:08:02;7.00;1.00
20291;DHT22;10304;51.074;13.754;2024-02-14T02:10:32;7.00;1.00
20291;DHT22;10304;51.074;13.754;2024-02-14T02:13:01;7.00;1.00
20291;DHT22;10304;51.074;13.754;2024-02-14T02:15:52;7.00;1.00
20291;DHT22;10304;51.074;13.754;2024-02-14T02:18:33;7.00;1.00
20291;DHT22;10304;51.074;13.754;2024-02-14T02:21:02;7.00;1.00
20291;DHT22;10304;51.074;13.754;2024-02-14T02:23:35;7.00;1.00
20291;DHT22;10304;51.074;13.754;2024-02-14T02:26:02;7.00;1.00
20291;DHT22;10304;51.074;13.754;2024-02-14T02:28:33;7.00;1.00
20291;DHT22;10304;51.074;13.754;2024-02-14T02:31:01;6.90;1.00
20291;DHT22;10304;51.074;13.754;2024-02-14T02:33:32;7.00;1.00
20291;DHT22;10304;51.074;13.754;2024-02-14T02:36:06;6.90;1.00
20291;DHT22;10304;51.074;13.754;2024-02-14T02:38:47;6.90;1.00
20291;DHT22;10304;51.074;13.754;2024-02-14T02:41:19;6.90;1.00
20291;DHT22;10304;51.074;13.754;2024-02-14T02:43:53;6.90;1.00
20291;DHT22;10304;51.074;13.754;2024-02-14T02:46:23;6.90;1.00
20291;DHT22;10304;51.074;13.754;2024-02-14T02:48:57;6.90;1.00
20291;DHT22;10304;51.074;13.754;2024-02-14T02:51:26;6.90;1.00
20291;DHT22;10304;51.074;13.754;2024-02-14T02:53:59;6.90;1.00
20291;DHT22;10304;51.074;13.754;2024-02-14T02:56:35;6.90;1.00
20291;DHT22;10304;51.074;13.754;2024-02-14T02:59:30;6.90;1.00
20291;DHT22;10304;51.074;13.754;2024-02-14T03:02:08;7.00;1.00
20291;DHT22;10304;51.074;13.754;2024-02-14T03:04:44;6.90;1.00
20291;DHT22;10304;51.074;13.754;2024-02-14T03:07:19;6.90;1.00
20291;DHT22;10304;51.074;13.754;2024-02-14T03:09:53;7.00;1.00
20291;DHT22;10304;51.074;13.754;2024-02-14T03:12:29;7.00;1.00
20291;DHT22;10304;51.074;13.754;2024-02-14T03:15:05;6.90;1.00
20291;DHT22;10304;51.074;13.754;2024-02-14T03:17:41;6.90;1.00
20291;DHT22;10304;51.074;13.754;2024-02-14T03:20:12;6.90;1.00
20291;DHT22;10304;51.074;13.754;2024-02-14T03:22:46;6.90;1.00
20291;DHT22;10304;51.074;13.754;2024-02-14T03:25:19;6.90;1.00
20291;DHT22;10304;51.074;13.754;2024-02-14T03:27:52;6.90;1.00
20291;DHT22;10304;51.074;13.754;2024-02-14T03:30:24;7.00;1.00
20291;DHT22;10304;51.074;13.754;2024-02-14T03:32:55;7.00;1.00
20291;DHT22;10304;51.074;13.754;2024-02-14T03:35:26;7.00;1.00
20291;DHT22;10304;51.074;13.754;2024-02-14T03:37:54;7.00;1.00
20291;DHT22;10304;51.074;13.754;2024-02-14T03:40:28;7.10;1.00
20291;DHT22;10304;51.074;13.754;2024-02-14T03:42:58;7.10;1.00
20291;DHT22;10304;51.074;13.754;2024-02-14T03:45:40;7.10;1.00
20291;DHT22;10304;51.074;13.754;2024-02-14T03:48:18;7.10;1.00
20291;DHT22;10304;51.074;13.754;2024-02-14T03:51:03;7.10;1.00
20291;DHT22;10304;51.074;13.754;2024-02-14T03:53:45;7.10;1.00
20291;DHT22;10304;51.074;13.754;2024-02-14T03:56:20;7.10;1.00
20291;DHT22;10304;51.074;13.754;2024-02-14T03:59:00;7.20;1.00
20291;DHT22;10304;51.074;13.754;2024-02-14T04:01:45;7.20;1.00
20291;DHT22;10304;51.074;13.754;2024-02-14T04:04:42;7.20;1.00
20291;DHT22;10304;51.074;13.754;2024-02-14T04:07:13;7.20;1.00
20291;DHT22;10304;51.074;13.754;2024-02-14T04:09:54;7.20;1.00
20291;DHT22;10304;51.074;13.754;2024-02-14T04:12:28;7.20;1.00
20291;DHT22;10304;51.074;13.754;2024-02-14T04:15:10;7.20;1.00
20291;DHT22;10304;51.074;13.754;2024-02-14T04:17:56;7.30;1.00
20291;DHT22;10304;51.074;13.754;2024-02-14T04:20:38;7.30;1.00
20291;DHT22;10304;51.074;13.754;2024-02-14T04:23:08;7.30;1.00
20291;DHT22;10304;51.074;13.754;2024-02-14T04:25:41;7.30;1.00
20291;DHT22;10304;51.074;13.754;2024-02-14T04:28:09;7.30;1.00
20291;DHT22;10304;51.074;13.754;2024-02-14T04:30:44;7.40;1.00
20291;DHT22;10304;51.074;13.754;2024-02-14T04:33:12;7.40;1.00
20291;DHT22;10304;51.074;13.754;2024-02-14T04:35:44;7.40;1.00
20291;DHT22;10304;51.074;13.754;2024-02-14T04:38:18;7.40;1.00
20291;DHT22;10304;51.074;13.754;2024-02-14T04:40:55;7.40;1.00
20291;DHT22;10304;51.074;13.754;2024-02-14T04:43:26;7.40;1.00
20291;DHT22;10304;51.074;13.754;2024-02-14T04:46:09;7.50;1.00
20291;DHT22;10304;51.074;13.754;2024-02-14T04:48:50;7.40;1.00
20291;DHT22;10304;51.074;13.754;2024-02-14T04:51:32;7.50;1.00
20291;DHT22;10304;51.074;13.754;2024-02-14T04:54:15;7.40;1.00
20291;DHT22;10304;51.074;13.754;2024-02-14T04:56:51;7.40;1.00
20291;DHT22;10304;51.074;13.754;2024-02-14T04:59:41;7.40;1.00
20291;DHT22;10304;51.074;13.754;2024-02-14T05:02:11;7.40;1.00
20291;DHT22;10304;51.074;13.754;2024-02-14T05:04:46;7.30;1.00
20291;DHT22;10304;51.074;13.754;2024-02-14T05:07:18;7.30;1.00
20291;DHT22;10304;51.074;13.754;2024-02-14T05:10:13;7.30;1.00
20291;DHT22;10304;51.074;13.754;2024-02-14T05:12:55;7.20;1.00
20291;DHT22;10304;51.074;13.754;2024-02-14T05:15:36;7.30;1.00
20291;DHT22;10304;51.074;13.754;2024-02-14T05:18:07;7.20;1.00
20291;DHT22;10304;51.074;13.754;2024-02-14T05:20:40;7.20;1.00
20291;DHT22;10304;51.074;13.754;2024-02-14T05:23:22;7.20;1.00
20291;DHT22;10304;51.074;13.754;2024-02-14T05:26:06;7.20;1.00
20291;DHT22;10304;51.074;13.754;2024-02-14T05:29:19;7.20;1.00
20291;DHT22;10304;51.074;13.754;2024-02-14T05:32:13;7.20;1.00
20291;DHT22;10304;51.074;13.754;2024-02-14T05:34:59;7.20;1.00
20291;DHT22;10304;51.074;13.754;2024-02-14T05:37:30;7.20;1.00
20291;DHT22;10304;51.074;13.754;2024-02-14T05:40:05;7.20;1.00
20291;DHT22;10304;51.074;13.754;2024-02-14T05:42:39;7.10;1.00
20291;DHT22;10304;51.074;13.754;2024-02-14T05:45:15;7.20;1.00
20291;DHT22;10304;51.074;13.754;2024-02-14T05:47:51;7.20;1.00
20291;DHT22;10304;51.074;13.754;2024-02-14T05:50:25;7.20;1.00
20291;DHT22;10304;51.074;13.754;2024-02-14T05:53:05;7.20;1.00
20291;DHT22;10304;51.074;13.754;2024-02-14T05:55:33;7.20;1.00
20291;DHT22;10304;51.074;13.754;2024-02-14T05:58:05;7.30;1.00
20291;DHT22;10304;51.074;13.754;2024-02-14T06:00:43;7.30;1.00
20291;DHT22;10304;51.074;13.754;2024-02-14T06:03:15;7.40;1.00
20291;DHT22;10304;51.074;13.754;2024-02-14T06:05:48;7.40;1.00
20291;DHT22;10304;51.074;13.754;2024-02-14T06:08:26;7.40;1.00
20291;DHT22;10304;51.074;13.754;2024-02-14T06:10:55;7.40;1.00
20291;DHT22;10304;51.074;13.754;2024-02-14T06:13:32;7.40;1.00
20291;DHT22;10304;51.074;13.754;2024-02-14T06:16:01;7.40;1.00
20291;DHT22;10304;51.074;13.754;2024-02-14T06:18:35;7.40;1.00
20291;DHT22;10304;51.074;13.754;2024-02-14T06:21:12;7.50;1.00
20291;DHT22;10304;51.074;13.754;2024-02-14T06:23:50;7.50;1.00
20291;DHT22;10304;51.074;13.754;2024-02-14T06:26:21;7.60;1.00
20291;DHT22;10304;51.074;13.754;2024-02-14T06:28:59;7.60;1.00
20291;DHT22;10304;51.074;13.754;2024-02-14T06:31:35;7.60;1.00
20291;DHT22;10304;51.074;13.754;2024-02-14T06:34:10;7.60;1.00
20291;DHT22;10304;51.074;13.754;2024-02-14T06:36:40;7.70;1.00
20291;DHT22;10304;51.074;13.754;2024-02-14T06:39:22;7.70;1.00
20291;DHT22;10304;51.074;13.754;2024-02-14T06:42:03;7.80;1.00
20291;DHT22;10304;51.074;13.754;2024-02-14T06:44:43;7.80;1.00
20291;DHT22;10304;51.074;13.754;2024-02-14T06:47:20;7.90;1.00
20291;DHT22;10304;51.074;13.754;2024-02-14T06:49:49;7.90;1.00
20291;DHT22;10304;51.074;13.754;2024-02-14T06:52:20;8.00;1.00
20291;DHT22;10304;51.074;13.754;2024-02-14T06:54:47;8.00;1.00
20291;DHT22;10304;51.074;13.754;2024-02-14T06:57:15;8.00;1.00
20291;DHT22;10304;51.074;13.754;2024-02-14T06:59:42;8.10;1.00
20291;DHT22;10304;51.074;13.754;2024-02-14T07:02:10;8.10;1.00
20291;DHT22;10304;51.074;13.754;2024-02-14T07:04:40;8.10;1.00
20291;DHT22;10304;51.074;13.754;2024-02-14T07:07:08;8.20;1.00
20291;DHT22;10304;51.074;13.754;2024-02-14T07:09:35;8.20;1.00
20291;DHT22;10304;51.074;13.754;2024-02-14T07:12:05;8.20;99.90
20291;DHT22;10304;51.074;13.754;2024-02-14T07:14:32;8.30;99.90
20291;DHT22;10304;51.074;13.754;2024-02-14T07:17:00;8.30;99.90
20291;DHT22;10304;51.074;13.754;2024-02-14T07:19:28;8.30;99.90
20291;DHT22;10304;51.074;13.754;2024-02-14T07:21:55;8.30;99.90
20291;DHT22;10304;51.074;13.754;2024-02-14T07:24:22;8.40;99.90
20291;DHT22;10304;51.074;13.754;2024-02-14T07:26:50;8.40;99.90
20291;DHT22;10304;51.074;13.754;2024-02-14T07:29:17;8.40;99.90
20291;DHT22;10304;51.074;13.754;2024-02-14T07:31:44;8.50;99.90
20291;DHT22;10304;51.074;13.754;2024-02-14T07:34:12;8.50;99.90
20291;DHT22;10304;51.074;13.754;2024-02-14T07:36:40;8.60;99.90
20291;DHT22;10304;51.074;13.754;2024-02-14T07:39:13;8.60;99.90
20291;DHT22;10304;51.074;13.754;2024-02-14T07:41:40;8.70;99.90
20291;DHT22;10304;51.074;13.754;2024-02-14T07:44:08;8.70;99.90
20291;DHT22;10304;51.074;13.754;2024-02-14T07:46:35;8.80;99.90
20291;DHT22;10304;51.074;13.754;2024-02-14T07:49:03;8.80;99.90
20291;DHT22;10304;51.074;13.754;2024-02-14T07:51:32;8.90;99.90
20291;DHT22;10304;51.074;13.754;2024-02-14T07:54:05;9.00;99.90
20291;DHT22;10304;51.074;13.754;2024-02-14T07:56:33;9.10;99.90
20291;DHT22;10304;51.074;13.754;2024-02-14T07:59:01;9.20;99.90
20291;DHT22;10304;51.074;13.754;2024-02-14T08:01:30;9.30;99.90
20291;DHT22;10304;51.074;13.754;2024-02-14T08:03:59;9.30;99.90
20291;DHT22;10304;51.074;13.754;2024-02-14T08:06:26;9.40;99.90
20291;DHT22;10304;51.074;13.754;2024-02-14T08:08:54;9.50;99.90
20291;DHT22;10304;51.074;13.754;2024-02-14T08:11:26;9.60;99.90
20291;DHT22;10304;51.074;13.754;2024-02-14T08:13:53;9.70;99.90
20291;DHT22;10304;51.074;13.754;2024-02-14T08:16:20;9.70;99.90
20291;DHT22;10304;51.074;13.754;2024-02-14T08:18:47;9.80;99.90
20291;DHT22;10304;51.074;13.754;2024-02-14T08:21:17;9.90;99.90
20291;DHT22;10304;51.074;13.754;2024-02-14T08:23:44;9.90;99.90
20291;DHT22;10304;51.074;13.754;2024-02-14T08:26:23;10.00;99.90
20291;DHT22;10304;51.074;13.754;2024-02-14T08:28:51;10.10;99.90
20291;DHT22;10304;51.074;13.754;2024-02-14T08:31:20;10.10;99.90
20291;DHT22;10304;51.074;13.754;2024-02-14T08:33:48;10.10;99.90
20291;DHT22;10304;51.074;13.754;2024-02-14T08:36:15;10.20;99.90
20291;DHT22;10304;51.074;13.754;2024-02-14T08:38:47;10.30;99.90
20291;DHT22;10304;51.074;13.754;2024-02-14T08:41:15;10.40;99.90
20291;DHT22;10304;51.074;13.754;2024-02-14T08:43:42;10.40;99.90
20291;DHT22;10304;51.074;13.754;2024-02-14T08:46:14;10.50;99.90
20291;DHT22;10304;51.074;13.754;2024-02-14T08:48:44;10.50;89.30
20291;DHT22;10304;51.074;13.754;2024-02-14T08:51:17;10.60;96.70
20291;DHT22;10304;51.074;13.754;2024-02-14T08:53:47;10.60;88.70
20291;DHT22;10304;51.074;13.754;2024-02-14T08:56:15;10.70;78.00
20291;DHT22;10304;51.074;13.754;2024-02-14T08:58:43;10.70;60.00
20291;DHT22;10304;51.074;13.754;2024-02-14T09:01:11;10.80;67.00
20291;DHT22;10304;51.074;13.754;2024-02-14T09:03:42;10.80;51.80
20291;DHT22;10304;51.074;13.754;2024-02-14T09:06:17;11.00;56.90
20291;DHT22;10304;51.074;13.754;2024-02-14T09:08:46;11.00;92.70
20291;DHT22;10304;51.074;13.754;2024-02-14T09:11:13;11.10;47.30
20291;DHT22;10304;51.074;13.754;2024-02-14T09:13:41;11.10;38.40
20291;DHT22;10304;51.074;13.754;2024-02-14T09:16:09;11.20;35.40
20291;DHT22;10304;51.074;13.754;2024-02-14T09:18:41;11.30;48.50
20291;DHT22;10304;51.074;13.754;2024-02-14T09:21:09;11.40;30.00
20291;DHT22;10304;51.074;13.754;2024-02-14T09:23:36;11.40;18.10
20291;DHT22;10304;51.074;13.754;2024-02-14T09:26:07;11.50;23.00
20291;DHT22;10304;51.074;13.754;2024-02-14T09:28:34;11.60;27.90
20291;DHT22;10304;51.074;13.754;2024-02-14T09:31:01;11.60;16.00
20291;DHT22;10304;51.074;13.754;2024-02-14T09:33:30;11.70;15.30
20291;DHT22;10304;51.074;13.754;2024-02-14T09:35:58;11.80;12.20
20291;DHT22;10304;51.074;13.754;2024-02-14T09:38:25;11.80;11.10
20291;DHT22;10304;51.074;13.754;2024-02-14T09:40:53;11.80;1.00
20291;DHT22;10304;51.074;13.754;2024-02-14T09:43:26;11.90;1.90
20291;DHT22;10304;51.074;13.754;2024-02-14T09:45:54;12.00;1.00
20291;DHT22;10304;51.074;13.754;2024-02-14T09:48:22;12.00;1.00
20291;DHT22;10304;51.074;13.754;2024-02-14T09:50:50;12.10;1.00
20291;DHT22;10304;51.074;13.754;2024-02-14T09:53:20;12.20;1.00
20291;DHT22;10304;51.074;13.754;2024-02-14T09:55:49;12.20;1.00
20291;DHT22;10304;51.074;13.754;2024-02-14T09:58:17;12.30;1.00
20291;DHT22;10304;51.074;13.754;2024-02-14T10:00:44;12.30;1.00
20291;DHT22;10304;51.074;13.754;2024-02-14T10:03:11;12.30;1.00
20291;DHT22;10304;51.074;13.754;2024-02-14T10:05:42;12.40;1.00
20291;DHT22;10304;51.074;13.754;2024-02-14T10:08:10;12.40;1.00
20291;DHT22;10304;51.074;13.754;2024-02-14T10:10:38;12.40;1.00
20291;DHT22;10304;51.074;13.754;2024-02-14T10:13:06;12.50;1.00
20291;DHT22;10304;51.074;13.754;2024-02-14T10:15:33;12.50;1.00
20291;DHT22;10304;51.074;13.754;2024-02-14T10:18:03;12.50;1.00
20291;DHT22;10304;51.074;13.754;2024-02-14T10:20:31;12.60;1.00
20291;DHT22;10304;51.074;13.754;2024-02-14T10:23:02;12.70;1.00
20291;DHT22;10304;51.074;13.754;2024-02-14T10:25:34;12.70;1.00
20291;DHT22;10304;51.074;13.754;2024-02-14T10:28:05;12.70;1.00
20291;DHT22;10304;51.074;13.754;2024-02-14T10:30:36;12.70;1.00
20291;DHT22;10304;51.074;13.754;2024-02-14T10:33:05;12.70;1.00
20291;DHT22;10304;51.074;13.754;2024-02-14T10:35:50;12.80;1.00
20291;DHT22;10304;51.074;13.754;2024-02-14T10:38:20;12.70;1.00
20291;DHT22;10304;51.074;13.754;2024-02-14T10:40:48;12.70;1.00
20291;DHT22;10304;51.074;13.754;2024-02-14T10:43:17;12.80;1.00
20291;DHT22;10304;51.074;13.754;2024-02-14T10:45:45;12.80;1.00
20291;DHT22;10304;51.074;13.754;2024-02-14T10:48:12;12.70;1.00
20291;DHT22;10304;51.074;13.754;2024-02-14T10:50:43;12.70;1.00
20291;DHT22;10304;51.074;13.754;2024-02-14T10:53:14;12.70;1.00
20291;DHT22;10304;51.074;13.754;2024-02-14T10:55:46;12.70;1.00
20291;DHT22;10304;51.074;13.754;2024-02-14T10:58:19;12.60;1.00
20291;DHT22;10304;51.074;13.754;2024-02-14T11:00:49;12.70;1.00
20291;DHT22;10304;51.074;13.754;2024-02-14T11:03:16;12.60;1.00
20291;DHT22;10304;51.074;13.754;2024-02-14T11:05:49;12.70;1.00
20291;DHT22;10304;51.074;13.754;2024-02-14T11:08:20;12.70;10.20
20291;DHT22;10304;51.074;13.754;2024-02-14T11:10:54;12.70;17.80
20291;DHT22;10304;51.074;13.754;2024-02-14T11:13:27;12.80;53.00
20291;DHT22;10304;51.074;13.754;2024-02-14T11:15:56;12.90;55.60
20291;DHT22;10304;51.074;13.754;2024-02-14T11:18:25;12.90;54.40
20291;DHT22;10304;51.074;13.754;2024-02-14T11:20:53;13.00;62.80
20291;DHT22;10304;51.074;13.754;2024-02-14T11:23:24;13.00;38.00
20291;DHT22;10304;51.074;13.754;2024-02-14T11:26:01;13.10;99.10
20291;DHT22;10304;51.074;13.754;2024-02-14T11:28:30;13.20;99.90
20291;DHT22;10304;51.074;13.754;2024-02-14T11:31:17;13.30;52.10
20291;DHT22;10304;51.074;13.754;2024-02-14T11:33:53;13.30;99.90
20291;DHT22;10304;51.074;13.754;2024-02-14T11:36:34;13.50;90.30
20291;DHT22;10304;51.074;13.754;2024-02-14T11:39:03;13.60;99.90
20291;DHT22;10304;51.074;13.754;2024-02-14T11:41:34;13.70;98.80
20291;DHT22;10304;51.074;13.754;2024-02-14T11:44:08;13.80;99.90
20291;DHT22;10304;51.074;13.754;2024-02-14T11:46:39;13.80;99.90
20291;DHT22;10304;51.074;13.754;2024-02-14T11:49:06;13.90;99.30
20291;DHT22;10304;51.074;13.754;2024-02-14T11:51:34;14.00;99.90
20291;DHT22;10304;51.074;13.754;2024-02-14T11:54:03;14.20;99.90
20291;DHT22;10304;51.074;13.754;2024-02-14T11:56:38;14.30;99.90
20291;DHT22;10304;51.074;13.754;2024-02-14T11:59:08;14.40;99.90
20291;DHT22;10304;51.074;13.754;2024-02-14T12:01:37;14.50;99.90
20291;DHT22;10304;51.074;13.754;2024-02-14T12:04:05;14.60;96.40
20291;DHT22;10304;51.074;13.754;2024-02-14T12:06:38;14.60;73.60
20291;DHT22;10304;51.074;13.754;2024-02-14T12:09:08;14.60;58.10
20291;DHT22;10304;51.074;13.754;2024-02-14T12:11:41;14.60;53.60
20291;DHT22;10304;51.074;13.754;2024-02-14T12:14:10;14.60;52.30
20291;DHT22;10304;51.074;13.754;2024-02-14T12:16:38;14.70;37.80
20291;DHT22;10304;51.074;13.754;2024-02-14T12:19:15;14.70;32.60
20291;DHT22;10304;51.074;13.754;2024-02-14T12:21:44;14.60;42.40
20291;DHT22;10304;51.074;13.754;2024-02-14T12:24:15;14.60;13.00
20291;DHT22;10304;51.074;13.754;2024-02-14T12:26:43;14.60;16.30
20291;DHT22;10304;51.074;13.754;2024-02-14T12:29:12;14.60;18.00
20291;DHT22;10304;51.074;13.754;2024-02-14T12:31:44;14.70;36.90
20291;DHT22;10304;51.074;13.754;2024-02-14T12:34:15;14.70;26.60
20291;DHT22;10304;51.074;13.754;2024-02-14T12:36:42;14.60;25.20
20291;DHT22;10304;51.074;13.754;2024-02-14T12:39:09;14.60;15.60
20291;DHT22;10304;51.074;13.754;2024-02-14T12:41:39;14.60;23.60
20291;DHT22;10304;51.074;13.754;2024-02-14T12:44:07;14.70;27.50
20291;DHT22;10304;51.074;13.754;2024-02-14T12:46:34;14.60;27.40
20291;DHT22;10304;51.074;13.754;2024-02-14T12:49:05;14.60;36.30
20291;DHT22;10304;51.074;13.754;2024-02-14T12:51:33;14.60;32.10
20291;DHT22;10304;51.074;13.754;2024-02-14T12:54:02;14.60;38.70
20291;DHT22;10304;51.074;13.754;2024-02-14T12:56:31;14.70;39.30
20291;DHT22;10304;51.074;13.754;2024-02-14T12:58:58;14.70;29.50
20291;DHT22;10304;51.074;13.754;2024-02-14T13:01:26;14.70;31.80
20291;DHT22;10304;51.074;13.754;2024-02-14T13:03:53;14.70;33.40
20291;DHT22;10304;51.074;13.754;2024-02-14T13:06:20;14.70;39.70
20291;DHT22;10304;51.074;13.754;2024-02-14T13:08:47;14.70;42.00
20291;DHT22;10304;51.074;13.754;2024-02-14T13:11:14;14.80;33.00
20291;DHT22;10304;51.074;13.754;2024-02-14T13:13:44;14.80;28.70
20291;DHT22;10304;51.074;13.754;2024-02-14T13:16:13;14.80;13.90
20291;DHT22;10304;51.074;13.754;2024-02-14T13:18:43;14.80;15.40
20291;DHT22;10304;51.074;13.754;2024-02-14T13:21:15;14.70;30.00
20291;DHT22;10304;51.074;13.754;2024-02-14T13:23:43;14.70;29.50
20291;DHT22;10304;51.074;13.754;2024-02-14T13:26:10;14.80;31.00
20291;DHT22;10304;51.074;13.754;2024-02-14T13:28:37;14.80;29.90
20291;DHT22;10304;51.074;13.754;2024-02-14T13:31:07;14.80;37.50
20291;DHT22;10304;51.074;13.754;2024-02-14T13:33:34;14.80;36.00
20291;DHT22;10304;51.074;13.754;2024-02-14T13:36:04;14.80;45.90
20291;DHT22;10304;51.074;13.754;2024-02-14T13:38:31;14.90;26.10
20291;DHT22;10304;51.074;13.754;2024-02-14T13:40:59;14.90;28.60
20291;DHT22;10304;51.074;13.754;2024-02-14T13:43:26;14.90;33.10
20291;DHT22;10304;51.074;13.754;2024-02-14T13:45:53;15.00;24.90
20291;DHT22;10304;51.074;13.754;2024-02-14T13:48:21;14.90;26.30
20291;DHT22;10304;51.074;13.754;2024-02-14T13:50:48;14.80;20.70
20291;DHT22;10304;51.074;13.754;2024-02-14T13:53:16;14.80;43.30
20291;DHT22;10304;51.074;13.754;2024-02-14T13:55:44;14.70;55.00
20291;DHT22;10304;51.074;13.754;2024-02-14T13:58:10;14.60;65.00
20291;DHT22;10304;51.074;13.754;2024-02-14T14:00:44;14.60;78.10
20291;DHT22;10304;51.074;13.754;2024-02-14T14:03:11;14.60;92.90
20291;DHT22;10304;51.074;13.754;2024-02-14T14:05:39;14.60;81.40
20291;DHT22;10304;51.074;13.754;2024-02-14T14:08:06;14.60;84.60
20291;DHT22;10304;51.074;13.754;2024-02-14T14:10:33;14.60;69.30
20291;DHT22;10304;51.074;13.754;2024-02-14T14:13:00;14.60;96.20
20291;DHT22;10304;51.074;13.754;2024-02-14T14:15:27;14.60;99.90
20291;DHT22;10304;51.074;13.754;2024-02-14T14:17:58;14.60;99.90
20291;DHT22;10304;51.074;13.754;2024-02-14T14:20:27;14.60;79.10
20291;DHT22;10304;51.074;13.754;2024-02-14T14:22:55;14.60;72.60
20291;DHT22;10304;51.074;13.754;2024-02-14T14:25:23;14.60;95.20
20291;DHT22;10304;51.074;13.754;2024-02-14T14:27:53;14.60;99.90
20291;DHT22;10304;51.074;13.754;2024-02-14T14:30:26;14.50;99.90
20291;DHT22;10304;51.074;13.754;2024-02-14T14:33:02;14.60;99.90
20291;DHT22;10304;51.074;13.754;2024-02-14T14:35:33;14.50;99.90
20291;DHT22;10304;51.074;13.754;2024-02-14T14:38:00;14.50;99.90
20291;DHT22;10304;51.074;13.754;2024-02-14T14:40:28;14.50;99.90
20291;DHT22;10304;51.074;13.754;2024-02-14T14:42:55;14.50;99.90
20291;DHT22;10304;51.074;13.754;2024-02-14T14:45:22;14.50;99.90
20291;DHT22;10304;51.074;13.754;2024-02-14T14:47:49;14.50;99.90
20291;DHT22;10304;51.074;13.754;2024-02-14T14:50:16;14.50;99.90
20291;DHT22;10304;51.074;13.754;2024-02-14T14:52:45;14.50;99.90
20291;DHT22;10304;51.074;13.754;2024-02-14T14:55:12;14.50;99.90
20291;DHT22;10304;51.074;13.754;2024-02-14T14:57:39;14.50;99.90
20291;DHT22;10304;51.074;13.754;2024-02-14T15:00:10;14.50;99.90
20291;DHT22;10304;51.074;13.754;2024-02-14T15:02:42;14.50;99.90
20291;DHT22;10304;51.074;13.754;2024-02-14T15:05:10;14.50;99.90
20291;DHT22;10304;51.074;13.754;2024-02-14T15:07:41;14.40;99.90
20291;DHT22;10304;51.074;13.754;2024-02-14T15:10:08;14.40;99.90
20291;DHT22;10304;51.074;13.754;2024-02-14T15:12:37;14.40;99.90
20291;DHT22;10304;51.074;13.754;2024-02-14T15:15:04;14.50;99.90
20291;DHT22;10304;51.074;13.754;2024-02-14T15:17:31;14.50;99.90
20291;DHT22;10304;51.074;13.754;2024-02-14T15:20:05;14.50;99.90
20291;DHT22;10304;51.074;13.754;2024-02-14T15:22:33;14.40;99.90
20291;DHT22;10304;51.074;13.754;2024-02-14T15:25:00;14.40;99.90
20291;DHT22;10304;51.074;13.754;2024-02-14T15:27:27;14.40;99.90
20291;DHT22;10304;51.074;13.754;2024-02-14T15:29:57;14.40;99.90
20291;DHT22;10304;51.074;13.754;2024-02-14T15:32:42;14.40;99.90
20291;DHT22;10304;51.074;13.754;2024-02-14T15:35:28;14.30;99.90
20291;DHT22;10304;51.074;13.754;2024-02-14T15:37:55;14.30;99.90
20291;DHT22;10304;51.074;13.754;2024-02-14T15:40:22;14.30;99.90
20291;DHT22;10304;51.074;13.754;2024-02-14T15:42:49;14.30;99.90
20291;DHT22;10304;51.074;13.754;2024-02-14T15:45:20;14.30;99.90
20291;DHT22;10304;51.074;13.754;2024-02-14T15:47:47;14.30;99.90
20291;DHT22;10304;51.074;13.754;2024-02-14T15:50:14;14.30;99.90
20291;DHT22;10304;51.074;13.754;2024-02-14T15:52:41;14.30;99.90
20291;DHT22;10304;51.074;13.754;2024-02-14T15:55:08;14.30;99.90
20291;DHT22;10304;51.074;13.754;2024-02-14T15:57:35;14.30;99.90